Tonyrefail, United Kingdom
Current Conditions -  °F | °C
As of 11:50 PM on Sunday 21 Dec 2014 (Local Time) from EGDX Reporting Station
Overcast Overcast  
Wind Chill: 52°   Ceiling: 500
Heat Index: 52°   Visibility: 6mi
Dew Point: 52°   Wind: 18mph
Humidity: 100%   Direction: 260°W
Pressure: 30.15"   Gusts: NA
Location:  51.58°N, 3.43°W
Report Text: EGDX 212350Z AUTO 26016KT 9999 OVC005/// 11/11 Q1021
Loading
Personal Weather Stations






























Interactive Weather Map New forecast layout! Learn more

10-Day Weather Forecast

Advertisements
Track Severe Weather on mobile